Time;durP1;ratioP1;P1;durP2;ratioP2;P2;SDS_P1;SDS_P2;PMS_P1;PMS_P2;Temp;Humidity;BMP_temperature;BMP_pressure;BME280_temperature;BME280_humidity;BME280_pressure;Samples;Min_cycle;Max_cycle;Signal;HPM_P1;HPM_P2
2021/04/05 06:02:07;;;;;;;17.05;14.35;;;;;;;15.72;33.97;93619.56;5103927;27;20444;-87
2021/04/05 06:04:48;;;;;;;16.42;13.63;;;;;;;16.54;33.71;93657.91;5073972;28;20134;-89
2021/04/05 06:07:58;;;;;;;15.82;14.13;;;;;;;17.02;32.48;93632.47;5083947;28;20035;-88
2021/04/05 06:11:02;;;;;;;19.52;16.67;;;;;;;17.54;32.29;93654.78;5054297;28;20051;-90
2021/04/05 06:13:50;;;;;;;19.33;17.33;;;;;;;18.31;31.16;93663.56;5079363;28;20047;-87
2021/04/05 06:16:52;;;;;;;19.67;17.67;;;;;;;18.96;30.27;93666.88;5064872;28;20048;-86
2021/04/05 06:19:34;;;;;;;16.60;14.75;;;;;;;19.56;29.18;93638.91;5085278;28;20511;-85
2021/04/05 06:22:15;;;;;;;17.63;15.80;;;;;;;19.74;29.02;93674.16;5087164;28;20089;-90
2021/04/05 06:24:56;;;;;;;15.95;14.30;;;;;;;20.30;28.45;93671.94;5044205;28;20036;-83
2021/04/05 06:27:59;;;;;;;18.13;16.33;;;;;;;20.41;27.88;93677.56;5048880;28;20084;-84
2021/04/05 06:30:41;;;;;;;17.35;15.65;;;;;;;20.74;27.53;93675.94;5060985;28;22206;-89
2021/04/05 06:33:20;;;;;;;19.45;16.65;;;;;;;20.73;26.67;93665.53;5060590;28;20127;-86
2021/04/05 06:36:09;;;;;;;21.50;19.05;;;;;;;20.64;26.44;93648.88;5061341;28;20033;-86
2021/04/05 06:38:41;;;;;;;18.30;16.42;;;;;;;21.40;26.10;93685.59;5047371;28;20040;-87
2021/04/05 06:41:33;;;;;;;16.88;15.23;;;;;;;21.42;26.04;93652.97;5066594;28;20069;-89
2021/04/05 06:44:15;;;;;;;17.08;15.38;;;;;;;21.81;25.77;93672.41;5036004;28;20086;-87
2021/04/05 06:47:00;;;;;;;18.58;16.77;;;;;;;21.04;26.39;93678.78;5055199;28;20028;-88
2021/04/05 06:49:41;;;;;;;16.83;15.10;;;;;;;21.48;25.35;93644.25;5061843;28;20036;-88
2021/04/05 06:52:24;;;;;;;18.52;14.98;;;;;;;22.39;24.84;93675.56;5063675;28;20857;-87
2021/04/05 06:55:14;;;;;;;16.20;14.50;;;;;;;23.17;23.61;93676.47;5062454;28;20627;-83
2021/04/05 06:58:07;;;;;;;16.35;14.70;;;;;;;23.99;23.27;93673.38;5059546;28;20036;-84
2021/04/05 07:00:33;;;;;;;18.90;17.00;;;;;;;24.49;22.63;93671.72;5001435;28;20057;-81
2021/04/05 07:03:16;;;;;;;16.20;14.52;;;;;;;24.92;22.45;93674.66;5041712;28;20048;-85
2021/04/05 07:06:11;;;;;;;17.02;15.27;;;;;;;24.59;22.07;93668.31;5064708;28;20203;-83
2021/04/05 07:08:52;;;;;;;15.07;13.57;;;;;;;24.26;23.57;93673.94;5063600;28;20052;-83
2021/04/05 07:11:25;;;;;;;14.82;13.25;;;;;;;24.71;22.41;93679.94;5052148;28;20745;-86
2021/04/05 07:14:27;;;;;;;15.10;13.63;;;;;;;25.27;21.99;93690.19;5064437;28;20032;-86
2021/04/05 07:17:20;;;;;;;12.70;11.43;;;;;;;26.23;20.89;93685.63;5052450;28;20067;-87
2021/04/05 07:20:05;;;;;;;17.58;15.73;;;;;;;26.21;20.83;93686.03;5022011;28;20051;-87
2021/04/05 07:23:01;;;;;;;19.75;17.65;;;;;;;25.27;21.71;93690.19;5049043;28;20057;-87
2021/04/05 07:26:17;;;;;;;25.73;20.58;;;;;;;25.73;21.75;93691.06;5048849;28;20390;-84
2021/04/05 07:29:04;;;;;;;16.95;15.18;;;;;;;26.26;20.89;93701.09;5035159;28;20047;-84
2021/04/05 07:31:30;;;;;;;16.75;15.15;;;;;;;27.11;21.00;93696.22;5044425;28;20045;-85
2021/04/05 07:34:01;;;;;;;13.77;12.18;;;;;;;27.48;19.64;93678.56;5026849;28;20395;-84
2021/04/05 07:36:43;;;;;;;16.63;15.05;;;;;;;27.90;19.02;93691.88;5043359;28;20086;-85
2021/04/05 07:39:21;;;;;;;18.95;16.98;;;;;;;27.77;19.79;93679.94;5047181;28;20044;-86
2021/04/05 07:42:26;;;;;;;16.38;14.68;;;;;;;27.07;19.81;93703.59;5038809;28;20216;-87
2021/04/05 07:45:13;;;;;;;30.42;23.95;;;;;;;25.26;21.18;93656.19;5022946;28;20037;-86
2021/04/05 07:48:07;;;;;;;;;;;;;;;;;;;;;
2021/04/05 07:50:56;;;;;;;26.02;21.15;;;;;;;23.96;23.12;93708.41;4995815;28;20051;-86
2021/04/05 07:53:27;;;;;;;28.40;23.20;;;;;;;24.07;23.69;93706.56;5029157;28;20054;-87
2021/04/05 07:55:59;;;;;;;26.05;20.40;;;;;;;24.89;22.43;93705.91;5049526;28;20028;-83
2021/04/05 07:58:32;;;;;;;26.75;21.38;;;;;;;26.07;21.58;93694.13;5041546;28;20425;-86
2021/04/05 08:01:14;;;;;;;17.42;14.73;;;;;;;27.21;20.41;93710.13;5038029;28;20220;-87
2021/04/05 08:04:07;;;;;;;20.95;18.73;;;;;;;26.28;20.73;93672.47;5035758;28;20102;-83
2021/04/05 08:07:04;;;;;;;26.83;23.73;;;;;;;26.05;21.65;93685.63;5046390;28;20032;-85
2021/04/05 08:09:37;;;;;;;15.18;13.77;;;;;;;25.05;21.12;93675.84;5043727;28;20508;-84
2021/04/05 08:12:29;;;;;;;14.10;12.80;;;;;;;24.03;23.08;93725.44;5047031;28;20750;-86
2021/04/05 08:15:22;;;;;;;14.68;13.27;;;;;;;22.58;24.76;93678.09;5030237;28;20498;-87
2021/04/05 08:18:22;;;;;;;14.10;12.75;;;;;;;22.08;25.52;93675.91;5035165;28;20083;-86
2021/04/05 08:21:01;;;;;;;14.13;12.73;;;;;;;21.43;26.74;93727.88;4970766;28;20045;-86
2021/04/05 08:24:06;;;;;;;13.93;12.48;;;;;;;20.68;27.39;93735.63;5022036;28;20041;-86
2021/04/05 08:26:39;;;;;;;13.93;11.95;;;;;;;20.08;28.00;93708.28;5046960;28;20422;-85
2021/04/05 08:29:45;;;;;;;12.73;11.40;;;;;;;20.20;27.24;93729.63;5034379;28;20571;-86
2021/04/05 08:32:22;;;;;;;13.40;12.02;;;;;;;20.72;27.40;93723.06;5024401;28;20040;-85
2021/04/05 08:35:14;;;;;;;11.43;10.23;;;;;;;21.51;26.83;93726.09;5044756;28;20628;-85
2021/04/05 08:37:54;;;;;;;11.60;10.45;;;;;;;21.94;25.95;93714.16;5035137;28;20064;-86
2021/04/05 08:40:38;;;;;;;10.25;9.25;;;;;;;22.44;24.19;93715.63;5031814;28;20793;-85
2021/04/05 08:43:08;;;;;;;10.30;9.20;;;;;;;22.61;23.29;93719.69;5046426;28;21299;-84
2021/04/05 08:45:45;;;;;;;10.43;9.43;;;;;;;22.69;23.52;93722.09;5042480;28;20247;-83
2021/04/05 08:48:20;;;;;;;9.80;8.88;;;;;;;22.72;24.18;93712.56;5046935;28;20041;-86
2021/04/05 08:50:51;;;;;;;12.35;10.02;;;;;;;23.27;22.71;93694.69;5047868;28;20036;-83
2021/04/05 08:53:19;;;;;;;10.27;9.32;;;;;;;24.11;22.54;93708.13;5044641;28;20448;-88
2021/04/05 08:55:46;;;;;;;10.25;9.25;;;;;;;24.95;21.62;93706.31;5045067;28;20036;-85
2021/04/05 08:58:26;;;;;;;8.32;7.63;;;;;;;26.18;19.95;93700.31;5034923;28;20028;-86
2021/04/05 09:00:55;;;;;;;11.20;9.52;;;;;;;25.92;20.57;93703.44;5023535;28;20147;-84
2021/04/05 09:03:31;;;;;;;10.75;9.82;;;;;;;25.18;20.60;93695.19;5045735;28;20771;-82
2021/04/05 09:06:00;;;;;;;10.05;8.55;;;;;;;24.53;21.21;93696.84;5045596;28;20050;-85
2021/04/05 09:08:27;;;;;;;10.13;9.23;;;;;;;23.67;21.62;93700.09;5035122;28;20047;-87
2021/04/05 09:11:02;;;;;;;9.90;8.68;;;;;;;23.03;22.23;93708.66;5041170;28;20028;-84
2021/04/05 09:13:40;;;;;;;9.20;8.30;;;;;;;22.70;22.40;93702.16;5045012;28;20056;-86
2021/04/05 09:16:24;;;;;;;9.18;8.35;;;;;;;22.47;23.74;93709.53;5064080;28;20036;-83
2021/04/05 09:19:15;;;;;;;13.73;12.25;;;;;;;22.30;23.40;93710.03;5047869;28;20037;-86
2021/04/05 09:22:01;;;;;;;13.63;12.20;;;;;;;21.79;23.38;93710.44;5048146;28;20044;-86
2021/04/05 09:24:36;;;;;;;11.43;10.32;;;;;;;21.57;24.60;93700.47;5045863;28;20131;-85
2021/04/05 09:27:31;;;;;;;11.02;9.98;;;;;;;21.45;24.45;93687.22;5041882;28;20044;-85
2021/04/05 09:30:34;;;;;;;9.35;8.45;;;;;;;21.71;24.55;93703.38;5045528;28;20044;-86
2021/04/05 09:33:34;;;;;;;9.63;8.73;;;;;;;20.93;24.30;93675.13;5027726;28;20131;-86
2021/04/05 09:36:21;;;;;;;9.65;8.68;;;;;;;19.88;26.73;93704.00;5044174;28;20120;-87
2021/04/05 09:39:18;;;;;;;10.65;9.55;;;;;;;19.56;26.70;93708.59;5027998;28;20076;-89
2021/04/05 09:42:20;;;;;;;10.65;9.23;;;;;;;20.25;27.98;93693.69;5026995;28;20052;-86
2021/04/05 09:45:21;;;;;;;14.00;12.65;;;;;;;21.22;25.88;93699.84;5032882;28;20242;-86
2021/04/05 09:48:02;;;;;;;11.00;9.95;;;;;;;21.46;24.09;93688.75;5027240;28;20048;-88
2021/04/05 09:51:05;;;;;;;9.70;8.80;;;;;;;20.00;25.87;93693.13;5040673;28;20461;-88
2021/04/05 09:54:01;;;;;;;9.63;8.63;;;;;;;19.29;27.17;93678.06;5042046;28;20061;-88
2021/04/05 09:56:53;;;;;;;9.57;8.15;;;;;;;19.51;28.29;93649.09;5029774;28;20045;-87
2021/04/05 09:59:21;;;;;;;10.68;9.57;;;;;;;19.88;26.52;93631.59;5028798;28;20048;-88
2021/04/05 10:01:50;;;;;;;11.73;9.30;;;;;;;20.53;26.07;93664.75;5037731;28;20051;-87
2021/04/05 10:04:22;;;;;;;9.68;8.75;;;;;;;19.30;27.24;93658.16;5036364;28;20039;-86
2021/04/05 10:06:50;;;;;;;8.75;7.95;;;;;;;18.82;28.12;93647.75;5045328;28;20041;-88
2021/04/05 10:09:25;;;;;;;9.02;8.13;;;;;;;18.19;27.42;93610.09;5045431;28;20037;-84
2021/04/05 10:11:54;;;;;;;9.88;8.88;;;;;;;17.94;29.07;93605.94;5043388;28;20548;-89
2021/04/05 10:14:25;;;;;;;11.10;10.00;;;;;;;16.89;30.76;93635.13;5033066;28;20040;-86
2021/04/05 10:16:55;;;;;;;10.75;9.63;;;;;;;16.44;30.29;93623.66;5046552;28;20422;-87
2021/04/05 10:19:35;;;;;;;10.93;9.35;;;;;;;16.29;31.68;93635.72;5041731;28;20040;-86
2021/04/05 10:22:09;;;;;;;11.02;9.35;;;;;;;15.74;29.76;93633.31;5040093;28;20520;-86
2021/04/05 10:24:44;;;;;;;9.63;8.68;;;;;;;15.71;30.84;93633.97;5039244;28;20053;-86
2021/04/05 10:27:13;;;;;;;10.93;9.20;;;;;;;16.19;32.10;93627.31;5054706;28;20040;-86
2021/04/05 10:29:42;;;;;;;13.85;11.38;;;;;;;16.20;33.37;93623.56;5043706;28;20846;-85
2021/04/05 10:32:12;;;;;;;14.98;12.20;;;;;;;16.35;34.02;93617.63;5041582;28;20040;-83
2021/04/05 10:34:42;;;;;;;20.30;14.50;;;;;;;16.48;35.16;93603.22;5044087;28;25290;-86
2021/04/05 10:37:10;;;;;;;15.30;11.70;;;;;;;16.38;33.33;93593.75;5034907;28;20668;-83
2021/04/05 10:39:47;;;;;;;13.85;12.35;;;;;;;16.70;33.96;93616.19;5044731;28;20532;-85
2021/04/05 10:42:22;;;;;;;15.50;12.18;;;;;;;17.09;32.46;93606.03;5043998;28;20894;-82
2021/04/05 10:45:08;;;;;;;16.10;11.85;;;;;;;16.89;33.04;93613.00;5031079;28;20070;-86
2021/04/05 10:47:49;;;;;;;13.98;11.88;;;;;;;17.20;32.02;93620.50;5040411;28;20040;-86
2021/04/05 10:50:16;;;;;;;17.27;12.07;;;;;;;17.36;31.57;93608.00;5043917;28;20116;-86
2021/04/05 10:52:45;;;;;;;13.45;11.13;;;;;;;17.19;31.13;93600.25;5045236;28;20588;-84
2021/04/05 10:55:21;;;;;;;14.48;11.30;;;;;;;17.34;31.59;93596.91;5044203;28;20590;-86
2021/04/05 10:57:57;;;;;;;11.90;10.45;;;;;;;17.00;30.82;93592.00;5035760;28;20100;-86
2021/04/05 11:00:36;;;;;;;12.57;11.15;;;;;;;16.25;31.27;93570.03;5042300;28;20064;-86
2021/04/05 11:03:09;;;;;;;13.57;11.38;;;;;;;16.25;31.46;93567.38;5041723;28;20539;-86
2021/04/05 11:05:38;;;;;;;14.45;11.02;;;;;;;16.62;33.83;93579.69;5044239;28;20497;-85
2021/04/05 11:08:05;;;;;;;11.88;10.63;;;;;;;16.76;34.81;93576.75;5043262;28;20352;-87
2021/04/05 11:10:36;;;;;;;12.38;10.50;;;;;;;16.75;33.36;93567.97;5046695;28;20070;-88
2021/04/05 11:13:07;;;;;;;12.45;10.85;;;;;;;16.76;32.19;93569.50;5033073;28;20490;-86
2021/04/05 11:15:37;;;;;;;13.27;11.63;;;;;;;16.48;33.00;93560.53;5042175;28;20040;-82
2021/04/05 11:18:05;;;;;;;13.95;10.60;;;;;;;16.47;32.65;93548.31;5041766;28;20078;-84
2021/04/05 11:20:33;;;;;;;11.35;10.13;;;;;;;16.16;31.88;93551.47;5041252;28;20206;-85
2021/04/05 11:23:07;;;;;;;15.00;10.98;;;;;;;16.40;33.50;93548.06;5040594;28;20434;-85
2021/04/05 11:25:40;;;;;;;12.10;9.73;;;;;;;16.19;34.11;93552.69;5043634;28;20122;-86
2021/04/05 11:28:21;;;;;;;13.35;10.80;;;;;;;16.15;35.21;93549.91;5054791;28;20122;-82
2021/04/05 11:30:58;;;;;;;16.95;12.77;;;;;;;16.21;33.60;93545.16;5046587;28;20032;-89
2021/04/05 11:33:26;;;;;;;18.75;11.10;;;;;;;16.33;34.41;93537.16;5044453;28;21131;-84
2021/04/05 11:35:54;;;;;;;13.25;11.35;;;;;;;16.13;35.18;93538.78;5044224;28;20048;-84
2021/04/05 11:38:21;;;;;;;12.43;10.70;;;;;;;16.09;33.81;93529.88;5057352;28;20087;-85
2021/04/05 11:40:48;;;;;;;13.52;10.45;;;;;;;15.65;34.88;93520.72;5050195;28;20033;-85
2021/04/05 11:43:27;;;;;;;11.10;9.93;;;;;;;15.75;35.11;93527.53;5038162;28;20074;-82
2021/04/05 11:45:54;;;;;;;12.45;10.30;;;;;;;15.74;34.31;93524.09;5048839;28;20056;-83
2021/04/05 11:48:23;;;;;;;11.20;10.00;;;;;;;15.53;35.81;93507.34;5045357;28;20119;-86
2021/04/05 11:50:51;;;;;;;13.35;10.93;;;;;;;15.68;34.82;93517.41;5050835;28;20045;-82
2021/04/05 11:53:48;;;;;;;15.25;11.10;;;;;;;15.50;35.01;93505.28;5049264;28;20046;-83
2021/04/05 11:56:16;;;;;;;14.25;11.13;;;;;;;15.46;35.50;93504.41;5046456;28;20236;-86
2021/04/05 11:59:00;;;;;;;13.07;11.52;;;;;;;15.33;34.31;93500.13;5055128;28;20591;-83
2021/04/05 12:01:34;;;;;;;11.07;9.85;;;;;;;15.13;35.20;93497.13;5050190;28;20053;-86
2021/04/05 12:04:08;;;;;;;11.67;10.10;;;;;;;14.80;34.91;93501.56;5042267;28;20040;-84
2021/04/05 12:06:47;;;;;;;10.43;9.32;;;;;;;14.68;35.85;93480.16;5048671;28;20273;-84
2021/04/05 12:09:33;;;;;;;12.55;10.38;;;;;;;14.59;35.43;93476.78;5048809;28;20164;-86
2021/04/05 12:12:03;;;;;;;11.35;9.05;;;;;;;14.45;37.29;93481.53;5045750;28;20037;-86
2021/04/05 12:14:30;;;;;;;10.95;9.85;;;;;;;14.71;38.25;93479.53;5051557;28;20037;-84
2021/04/05 12:16:58;;;;;;;10.73;9.63;;;;;;;14.61;36.21;93461.31;5048560;28;20071;-85
2021/04/05 12:19:29;;;;;;;13.00;10.18;;;;;;;14.71;37.06;93461.69;5046397;28;20024;-86
2021/04/05 12:21:56;;;;;;;15.02;12.02;;;;;;;14.84;36.23;93478.53;5052633;28;20055;-87
2021/04/05 12:24:31;;;;;;;10.63;9.52;;;;;;;14.67;36.31;93468.75;5051330;28;20025;-87
2021/04/05 12:27:03;;;;;;;10.15;8.98;;;;;;;14.44;36.06;93474.66;5040224;28;20127;-88
2021/04/05 12:29:30;;;;;;;11.60;9.32;;;;;;;14.08;36.95;93451.16;5048943;28;20113;-83
2021/04/05 12:31:57;;;;;;;11.75;9.70;;;;;;;14.11;37.73;93458.50;5044688;28;20464;-82
2021/04/05 12:34:32;;;;;;;11.00;9.80;;;;;;;14.28;36.83;93458.44;5051524;28;20040;-85
2021/04/05 12:37:11;;;;;;;11.73;9.82;;;;;;;13.82;36.62;93454.69;5052551;28;20041;-85
2021/04/05 12:39:36;;;;;;;11.02;9.52;;;;;;;14.23;37.04;93447.97;5048088;28;20052;-86
2021/04/05 12:42:10;;;;;;;11.65;9.80;;;;;;;14.46;38.59;93453.88;5052428;28;20591;-86
2021/04/05 12:44:41;;;;;;;10.50;8.65;;;;;;;14.54;39.09;93442.41;5048629;28;20049;-85
2021/04/05 12:47:12;;;;;;;15.80;11.05;;;;;;;14.87;37.54;93445.94;5047061;28;20083;-84
2021/04/05 12:49:58;;;;;;;12.32;9.50;;;;;;;15.01;38.04;93445.69;5050329;28;20366;-87
2021/04/05 12:52:31;;;;;;;9.60;8.60;;;;;;;15.03;37.69;93423.00;5051554;28;20535;-86
2021/04/05 12:55:06;;;;;;;9.63;8.25;;;;;;;15.23;37.45;93444.59;5058761;28;20040;-83
2021/04/05 12:57:34;;;;;;;12.00;9.13;;;;;;;15.44;36.10;93432.06;5047602;28;20511;-86
2021/04/05 13:00:04;;;;;;;9.40;8.40;;;;;;;15.40;34.84;93415.16;5038074;28;20041;-86
2021/04/05 13:02:34;;;;;;;12.43;8.77;;;;;;;15.27;35.13;93417.00;5041011;28;20040;-86
2021/04/05 13:05:13;;;;;;;10.45;8.68;;;;;;;15.37;34.82;93418.50;5038515;28;20028;-86
2021/04/05 13:07:59;;;;;;;9.73;8.73;;;;;;;15.42;36.45;93418.28;5052371;28;20021;-84
2021/04/05 13:10:30;;;;;;;11.80;9.40;;;;;;;15.23;35.10;93418.00;5048706;28;20048;-80
2021/04/05 13:13:09;;;;;;;12.30;9.20;;;;;;;15.05;36.35;93399.47;5061533;28;20553;-85
2021/04/05 13:15:43;;;;;;;12.63;9.57;;;;;;;14.93;36.16;93407.41;5046037;28;20513;-85
2021/04/05 13:18:15;;;;;;;10.43;9.32;;;;;;;14.68;36.89;93392.41;5045268;28;20559;-84
2021/04/05 13:20:47;;;;;;;10.45;8.52;;;;;;;14.54;37.08;93359.97;5048076;28;20085;-84
2021/04/05 13:23:14;;;;;;;12.57;9.82;;;;;;;14.68;37.44;93389.75;5046681;28;20025;-86
2021/04/05 13:25:49;;;;;;;12.00;10.05;;;;;;;14.03;36.71;93387.56;5049878;28;20032;-84
2021/04/05 13:28:21;;;;;;;14.07;10.13;;;;;;;13.69;37.76;93401.75;5036818;28;20048;-85
2021/04/05 13:30:49;;;;;;;12.68;9.98;;;;;;;13.37;39.08;93389.81;5049805;28;20040;-85
2021/04/05 13:33:24;;;;;;;10.70;9.57;;;;;;;13.54;38.22;93388.97;5046360;28;20386;-84
2021/04/05 13:36:01;;;;;;;15.93;10.02;;;;;;;13.54;39.32;93381.00;5050365;28;20134;-86
2021/04/05 13:38:30;;;;;;;12.68;8.75;;;;;;;13.64;37.64;93394.72;5049136;28;20079;-84
2021/04/05 13:41:12;;;;;;;10.95;9.43;;;;;;;13.67;38.35;93386.16;5047634;28;20016;-83
2021/04/05 13:43:44;;;;;;;12.98;9.73;;;;;;;13.82;38.69;93390.16;5048892;28;20484;-83
2021/04/05 13:46:10;;;;;;;16.98;9.88;;;;;;;13.68;38.50;93366.44;5045785;28;20053;-84
2021/04/05 13:48:46;;;;;;;13.55;11.73;;;;;;;14.03;38.00;93390.22;5045533;28;20044;-83
2021/04/05 13:51:16;;;;;;;18.08;12.73;;;;;;;14.00;37.44;93386.34;5048732;28;20232;-84
2021/04/05 13:53:43;;;;;;;14.45;10.18;;;;;;;14.09;38.11;93376.44;5050614;28;20532;-85
2021/04/05 13:56:19;;;;;;;12.57;9.82;;;;;;;14.05;36.71;93383.50;5046428;28;20097;-88
2021/04/05 13:58:51;;;;;;;12.93;10.05;;;;;;;14.03;36.99;93348.50;5053205;28;20485;-86
2021/04/05 14:01:20;;;;;;;13.23;10.80;;;;;;;14.20;36.43;93358.28;5048665;28;20048;-85
2021/04/05 14:03:51;;;;;;;11.45;9.50;;;;;;;14.36;36.67;93366.47;5049216;28;20032;-82
2021/04/05 14:06:25;;;;;;;14.80;10.43;;;;;;;14.29;37.05;93362.44;5048328;28;20048;-86
2021/04/05 14:08:51;;;;;;;13.35;11.75;;;;;;;14.03;37.17;93348.50;5047814;28;20044;-86
2021/04/05 14:11:35;;;;;;;15.23;10.45;;;;;;;14.13;36.82;93352.66;5045842;28;20033;-86
2021/04/05 14:14:01;;;;;;;15.15;11.88;;;;;;;14.02;36.98;93351.50;5045380;28;20021;-86
2021/04/05 14:16:33;;;;;;;15.98;11.60;;;;;;;14.08;36.38;93348.31;5046437;28;20389;-84
2021/04/05 14:19:11;;;;;;;14.65;11.63;;;;;;;14.19;36.74;93344.19;5037597;28;20067;-85
2021/04/05 14:21:44;;;;;;;15.65;11.15;;;;;;;13.82;36.99;93342.38;5048639;28;20412;-84
2021/04/05 14:24:22;;;;;;;14.13;11.60;;;;;;;13.93;36.92;93324.94;5052804;28;20117;-84
2021/04/05 14:26:51;;;;;;;15.80;12.50;;;;;;;14.03;36.96;93327.25;5054593;28;20060;-84
2021/04/05 14:29:27;;;;;;;15.82;12.13;;;;;;;13.72;37.05;93337.41;5051673;28;20049;-85
2021/04/05 14:31:58;;;;;;;14.75;10.23;;;;;;;13.73;37.17;93329.09;5056092;28;20017;-82
2021/04/05 14:34:28;;;;;;;13.55;10.82;;;;;;;13.61;37.47;93320.25;5052449;28;20044;-85
2021/04/05 14:37:02;;;;;;;14.68;11.40;;;;;;;13.56;37.02;93326.53;5052872;28;20418;-83
2021/04/05 14:39:36;;;;;;;21.25;12.32;;;;;;;13.61;37.59;93314.94;5049130;28;20036;-84
2021/04/05 14:42:13;;;;;;;17.92;12.30;;;;;;;13.43;38.19;93320.34;5050179;28;20044;-85
2021/04/05 14:44:44;;;;;;;18.50;12.80;;;;;;;13.25;38.67;93310.84;5061807;28;20486;-86
2021/04/05 14:47:18;;;;;;;18.95;13.82;;;;;;;13.28;38.54;93312.88;5044285;28;20178;-87
2021/04/05 14:49:53;;;;;;;15.25;11.40;;;;;;;12.80;39.11;93312.31;5065323;28;20075;-86
2021/04/05 14:52:40;;;;;;;15.32;12.15;;;;;;;12.60;39.06;93287.22;5044952;28;20543;-87
2021/04/05 14:55:08;;;;;;;14.35;11.20;;;;;;;12.82;38.54;93289.69;5046561;28;20048;-88
2021/04/05 14:57:39;;;;;;;15.18;10.82;;;;;;;13.01;39.46;93286.69;5039323;28;20124;-87
2021/04/05 15:00:18;;;;;;;15.48;11.30;;;;;;;13.22;38.55;93292.91;5049823;28;20067;-87
2021/04/05 15:02:53;;;;;;;15.95;11.02;;;;;;;13.26;38.17;93285.09;5041669;28;20053;-86
2021/04/05 15:05:21;;;;;;;17.00;10.93;;;;;;;13.36;37.87;93261.66;5028685;28;20117;-90
2021/04/05 15:08:01;;;;;;;14.52;11.23;;;;;;;13.29;38.38;93264.00;5064165;28;20032;-89
2021/04/05 15:10:32;;;;;;;13.65;10.75;;;;;;;13.32;37.41;93271.34;5052696;28;20116;-82
2021/04/05 15:12:59;;;;;;;18.90;11.65;;;;;;;12.85;37.85;93237.91;5048839;28;20051;-88
2021/04/05 15:15:27;;;;;;;15.95;10.82;;;;;;;12.99;37.83;93235.84;5049761;28;20040;-88
2021/04/05 15:18:00;;;;;;;19.17;13.93;;;;;;;12.87;38.24;93238.34;5047343;28;20536;-84
2021/04/05 15:20:53;;;;;;;20.00;13.70;;;;;;;13.06;38.92;93262.63;5051573;28;20337;-87
2021/04/05 15:23:30;;;;;;;20.27;13.55;;;;;;;12.75;39.25;93225.75;5041771;28;20060;-87
2021/04/05 15:26:08;;;;;;;17.52;13.63;;;;;;;12.69;39.71;93205.03;5048247;28;20031;-88
2021/04/05 15:28:37;;;;;;;17.05;12.40;;;;;;;12.81;39.67;93251.00;5048024;28;20098;-88
2021/04/05 15:31:04;;;;;;;16.77;12.60;;;;;;;12.75;40.38;93238.22;5051405;28;20085;-89
2021/04/05 15:33:38;;;;;;;19.02;13.43;;;;;;;12.87;39.53;93238.34;5046243;28;20560;-87
2021/04/05 15:36:04;;;;;;;16.80;13.48;;;;;;;12.80;39.65;93238.06;5053168;28;20043;-89
2021/04/05 15:38:34;;;;;;;21.92;14.10;;;;;;;12.76;40.37;93231.81;5039285;28;20038;-88
2021/04/05 15:41:02;;;;;;;22.52;16.08;;;;;;;12.55;41.14;93227.19;5049444;28;20032;-87
2021/04/05 15:43:34;;;;;;;27.27;16.10;;;;;;;12.58;40.78;93237.16;5052783;28;20135;-86
2021/04/05 15:46:12;;;;;;;23.48;14.57;;;;;;;12.67;40.84;93234.50;5051697;28;20048;-89
2021/04/05 15:48:41;;;;;;;19.63;14.23;;;;;;;12.44;41.69;93203.97;5047656;28;20518;-89
2021/04/05 15:51:26;;;;;;;19.20;13.88;;;;;;;12.51;41.87;93231.53;5045032;28;20041;-88
2021/04/05 15:54:02;;;;;;;16.95;12.98;;;;;;;12.33;42.21;93222.06;5050038;28;20089;-87
2021/04/05 15:56:30;;;;;;;20.13;13.77;;;;;;;12.09;42.79;93208.50;5048928;28;20033;-86
2021/04/05 15:59:01;;;;;;;20.63;14.07;;;;;;;11.98;42.69;93175.47;5051920;28;20021;-86
2021/04/05 16:01:50;;;;;;;17.58;13.52;;;;;;;12.38;42.64;93232.50;5050996;28;20048;-86
2021/04/05 16:04:36;;;;;;;19.42;12.40;;;;;;;12.37;43.61;93230.94;5050767;28;20599;-87
2021/04/05 16:07:22;;;;;;;19.00;13.10;;;;;;;12.17;42.86;93225.50;5052443;28;20056;-88
2021/04/05 16:09:54;;;;;;;14.57;11.52;;;;;;;11.89;43.50;93212.53;5043875;28;20123;-88
2021/04/05 16:12:34;;;;;;;17.83;11.07;;;;;;;11.76;44.61;93225.91;5045597;28;20079;-89
2021/04/05 16:15:07;;;;;;;17.48;11.45;;;;;;;11.40;44.94;93224.25;5047822;28;20078;-89
2021/04/05 16:17:55;;;;;;;18.73;12.60;;;;;;;11.10;45.52;93206.56;5034346;28;20111;-88
2021/04/05 16:20:25;;;;;;;17.38;12.60;;;;;;;11.09;45.55;93191.78;5048103;28;20039;-89
2021/04/05 16:22:58;;;;;;;15.90;11.10;;;;;;;11.06;46.14;93202.97;5041353;28;20065;-86
2021/04/05 16:25:31;;;;;;;16.83;12.40;;;;;;;11.03;47.19;93208.88;5049045;28;20465;-90
2021/04/05 16:28:01;;;;;;;17.95;12.25;;;;;;;10.94;47.85;93206.19;5050580;28;20032;-90
2021/04/05 16:30:32;;;;;;;16.08;11.52;;;;;;;10.63;48.38;93214.13;5040701;28;20040;-90
2021/04/05 16:33:03;;;;;;;15.25;10.88;;;;;;;10.40;48.66;93208.09;5048816;28;20044;-89
2021/04/05 16:35:36;;;;;;;16.30;10.88;;;;;;;10.22;49.31;93179.19;5049964;28;20171;-88
2021/04/05 16:38:05;;;;;;;16.05;10.73;;;;;;;10.19;49.79;93195.66;5045336;28;20067;-89
2021/04/05 16:40:36;;;;;;;13.32;10.57;;;;;;;10.11;50.30;93199.78;5047920;28;20482;-88
2021/04/05 16:43:20;;;;;;;15.88;10.60;;;;;;;10.00;51.04;93201.06;5046440;28;20086;-88
2021/04/05 16:45:50;;;;;;;16.45;10.63;;;;;;;9.61;51.70;93175.28;5037212;28;20075;-87
2021/04/05 16:48:20;;;;;;;14.57;10.48;;;;;;;9.64;52.35;93202.91;5051223;28;20123;-83
2021/04/05 16:51:03;;;;;;;15.50;11.65;;;;;;;9.55;51.96;93205.47;5048064;28;20460;-84
2021/04/05 16:53:33;;;;;;;17.55;10.45;;;;;;;9.39;53.05;93205.00;5048354;28;20594;-83
2021/04/05 16:56:08;;;;;;;12.40;8.85;;;;;;;9.13;54.07;93202.13;5039850;28;20066;-87
2021/04/05 16:58:49;;;;;;;14.80;9.77;;;;;;;9.01;54.67;93208.94;5046579;28;20136;-85
2021/04/05 17:01:18;;;;;;;14.52;10.10;;;;;;;8.88;54.56;93210.50;5046582;28;20131;-87
2021/04/05 17:03:49;;;;;;;21.13;11.25;;;;;;;8.84;54.11;93208.75;5044988;28;20045;-86
2021/04/05 17:06:25;;;;;;;15.95;12.02;;;;;;;8.78;54.35;93197.50;5045214;28;20055;-86
2021/04/05 17:09:08;;;;;;;17.65;12.23;;;;;;;8.69;54.54;93194.00;5043004;28;20400;-87
2021/04/05 17:12:02;;;;;;;20.08;11.43;;;;;;;8.63;54.92;93192.53;5041409;28;20044;-88
2021/04/05 17:14:41;;;;;;;16.80;10.70;;;;;;;8.57;54.91;93191.03;5049547;28;20047;-87
2021/04/05 17:17:16;;;;;;;15.30;10.90;;;;;;;8.46;55.25;93189.66;5043160;28;20463;-84
2021/04/05 17:19:48;;;;;;;16.00;10.25;;;;;;;8.35;56.13;93204.84;5047516;28;20021;-85
2021/04/05 17:22:27;;;;;;;25.05;14.55;;;;;;;8.14;56.56;93207.00;5046334;28;20040;-87
2021/04/05 17:25:02;;;;;;;26.25;16.92;;;;;;;8.02;57.66;93213.75;5043061;28;20036;-81
2021/04/05 17:27:28;;;;;;;;;;;;;;;7.94;57.72;93217.03;5035130;28;20398;-87
2021/04/05 17:29:57;;;;;;;15.65;10.65;;;;;;;7.81;58.37;93208.81;5044898;28;20391;-86
2021/04/05 17:32:35;;;;;;;19.30;11.75;;;;;;;7.81;58.47;93213.28;5046838;28;20377;-84
2021/04/05 17:35:31;;;;;;;16.45;10.68;;;;;;;7.72;58.98;93220.25;5031192;28;20071;-85
2021/04/05 17:38:12;;;;;;;17.08;10.75;;;;;;;7.68;59.14;93219.25;5046401;28;20045;-83
2021/04/05 17:41:00;;;;;;;16.88;10.90;;;;;;;7.68;59.07;93212.13;5042204;28;20029;-85
2021/04/05 17:43:38;;;;;;;15.30;11.43;;;;;;;7.75;59.61;93214.41;5062235;28;20577;-85
2021/04/05 17:46:49;;;;;;;17.95;12.13;;;;;;;7.56;59.95;93219.69;5046212;28;20322;-86
2021/04/05 17:49:26;;;;;;;17.17;11.57;;;;;;;7.46;60.01;93209.28;5036884;28;20521;-87
2021/04/05 17:51:58;;;;;;;13.63;9.88;;;;;;;7.44;59.67;93219.28;5055410;28;20143;-87
2021/04/05 17:54:51;;;;;;;14.07;9.93;;;;;;;7.35;59.61;93210.47;5042215;28;20552;-84
2021/04/05 17:57:29;;;;;;;17.38;9.93;;;;;;;7.37;59.64;93209.16;5040694;28;20071;-85
2021/04/05 18:00:06;;;;;;;14.18;10.73;;;;;;;7.24;60.02;93209.81;5047919;28;20485;-84
2021/04/05 18:03:00;;;;;;;13.95;10.65;;;;;;;7.23;60.12;93212.75;5044177;28;20148;-87
2021/04/05 18:05:56;;;;;;;14.65;9.70;;;;;;;7.24;60.21;93219.53;5043717;28;20036;-86
2021/04/05 18:08:43;;;;;;;17.00;10.43;;;;;;;7.27;59.77;93201.38;5043982;28;20385;-87
2021/04/05 18:11:46;;;;;;;17.52;11.57;;;;;;;7.36;59.87;93212.06;5039808;28;20593;-85